»·PEaware :: WEN3327 CYLW-KSEA

WEN3327 :: CYLW-KSEA

FLIGHT INFORMATION

Flight Status: Arrived
Operator: Unknown
More flights by this operator :: More flights under this callsign
Pilot: Marc M. (20543)
Aircraft: DEHAVILLAND DASH 8 400
(DH8D)
More flights by this aircraft type
Origin: CYLW Kelowna
Canada
Destination: KSEA Seattle-Tacoma Intl
United States
More flights between these airports :: More routes between these airports
Route: LW V354 YDC JAKSN
File this flight plan on PilotEdge
Remarks: RMK / SIMBRIEF
Altitude:
(Current/Filed)
24,000ft
Speed:
(Current/Filed)
320kts
Departed: 24-Aug-19 01:18 PM
Arrived: 24-Aug-19 02:13 PM
Distance/Time
Traveled:
190nm/0:55
Distance/Time
To Go:
Arrived

Flight Plot

Page will automatically refresh every two minutes.

Flight plan parsing failed; only flown route is shown


Map Options




Map Legend


Flown Route
Filed Route
Departure Airport
Arrival Airport
Navaid (VOR, NDB)
Fix

Horizontal Profiles

Position Reports

Time Latitude Longitude Heading Altitude Ground
Speed
24-Aug-19 13:01 49.952765 -119.380587 276 1416ft 0kts
24-Aug-19 13:02 49.952765 -119.380587 276 1416ft 0kts
24-Aug-19 13:03 49.952765 -119.380587 276 1416ft 0kts
24-Aug-19 13:04 49.952765 -119.380587 276 1416ft 0kts
24-Aug-19 13:05 49.952765 -119.380587 276 1416ft 0kts
24-Aug-19 13:06 49.952765 -119.380587 276 1416ft 0kts
24-Aug-19 13:07 49.952765 -119.380587 276 1416ft 0kts
24-Aug-19 13:08 49.952765 -119.380587 276 1416ft 0kts
24-Aug-19 13:09 49.952674 -119.380089 303 1416ft 2kts
24-Aug-19 13:10 49.952285 -119.379776 355 1416ft 0kts
24-Aug-19 13:11 49.952285 -119.379776 355 1416ft 0kts
24-Aug-19 13:12 49.952285 -119.379776 355 1416ft 0kts
24-Aug-19 13:13 49.952287 -119.379777 355 1416ft 1kts
24-Aug-19 13:14 49.950072 -119.378215 175 1416ft 23kts
24-Aug-19 13:15 49.948150 -119.377704 125 1416ft 0kts
24-Aug-19 13:16 49.948356 -119.376637 359 1416ft 0kts
24-Aug-19 13:17 49.964706 -119.379188 351 1800ft 143kts
24-Aug-19 13:19 49.999848 -119.388682 342 4304ft 155kts
24-Aug-19 13:20 50.035002 -119.403390 338 6870ft 155kts
24-Aug-19 13:21 50.061968 -119.437514 255 9027ft 164kts
24-Aug-19 13:22 50.030045 -119.473737 214 11346ft 174kts
24-Aug-19 13:23 49.995345 -119.512261 222 13707ft 175kts
24-Aug-19 13:24 49.962852 -119.556213 225 16071ft 178kts
24-Aug-19 13:25 49.930595 -119.602111 225 18438ft 181kts
24-Aug-19 13:26 49.897788 -119.648753 225 20792ft 185kts
24-Aug-19 13:27 49.864967 -119.695353 225 23030ft 185kts
24-Aug-19 13:28 49.829229 -119.746150 225 24008ft 246kts
24-Aug-19 13:29 49.781282 -119.813799 224 24002ft 310kts
24-Aug-19 13:30 49.724427 -119.893592 224 23996ft 329kts
24-Aug-19 13:31 49.667996 -119.973359 224 23996ft 333kts
24-Aug-19 13:32 49.608536 -120.057131 224 23996ft 335kts
24-Aug-19 13:33 49.547205 -120.143108 224 23996ft 336kts
24-Aug-19 13:34 49.488000 -120.225796 224 23996ft 337kts
24-Aug-19 13:35 49.429870 -120.306720 224 23996ft 337kts
24-Aug-19 13:36 49.373270 -120.382308 217 23996ft 340kts
24-Aug-19 13:37 49.306536 -120.443151 213 23996ft 341kts
24-Aug-19 13:38 49.239560 -120.504436 213 23996ft 341kts
24-Aug-19 13:39 49.171970 -120.566301 213 23996ft 341kts
24-Aug-19 13:39 49.115530 -120.617653 213 23996ft 341kts
24-Aug-19 13:40 49.044650 -120.681976 213 23996ft 341kts
24-Aug-19 13:42 48.961921 -120.756810 213 23996ft 341kts
24-Aug-19 13:42 48.900985 -120.811738 213 23996ft 341kts
24-Aug-19 13:43 48.828348 -120.877001 213 23996ft 341kts
24-Aug-19 13:44 48.760477 -120.937784 213 23996ft 341kts
24-Aug-19 13:45 48.691584 -120.999285 213 23996ft 342kts
24-Aug-19 13:46 48.623752 -121.059646 213 23996ft 342kts
24-Aug-19 13:47 48.550410 -121.124696 213 23996ft 342kts
24-Aug-19 13:48 48.480255 -121.186714 213 23996ft 342kts
24-Aug-19 13:49 48.408541 -121.249902 213 23996ft 342kts
24-Aug-19 13:50 48.340733 -121.309459 213 22786ft 351kts
24-Aug-19 13:51 48.272949 -121.368662 213 20390ft 325kts
24-Aug-19 13:52 48.209523 -121.423928 213 18039ft 302kts
24-Aug-19 13:53 48.149084 -121.476771 213 15790ft 306kts
24-Aug-19 13:54 48.086894 -121.530879 213 13670ft 309kts
24-Aug-19 13:55 48.025372 -121.584029 213 12039ft 294kts
24-Aug-19 13:56 47.966370 -121.634938 213 11920ft 292kts
24-Aug-19 13:57 47.904755 -121.688024 212 11855ft 296kts
24-Aug-19 13:58 47.850558 -121.752870 226 11229ft 283kts
24-Aug-19 13:59 47.804637 -121.818319 226 9814ft 243kts
24-Aug-19 14:00 47.763259 -121.876731 226 8043ft 239kts
24-Aug-19 14:01 47.723176 -121.932884 226 6969ft 222kts
24-Aug-19 14:02 47.683861 -121.987832 226 6900ft 216kts
24-Aug-19 14:03 47.669617 -122.058859 276 5493ft 218kts
24-Aug-19 14:04 47.674634 -122.143799 276 4257ft 230kts
24-Aug-19 14:05 47.679254 -122.226448 259 3909ft 205kts
24-Aug-19 14:06 47.642171 -122.270527 206 3904ft 176kts
24-Aug-19 14:07 47.604004 -122.298027 204 3782ft 165kts
24-Aug-19 14:08 47.562344 -122.304475 180 2729ft 167kts
24-Aug-19 14:09 47.526013 -122.305933 180 1764ft 146kts
24-Aug-19 14:10 47.491737 -122.306956 181 1166ft 118kts
24-Aug-19 14:11 47.462079 -122.307605 181 475ft 119kts
24-Aug-19 14:12 47.451941 -122.306551 139 440ft 15kts
24-Aug-19 14:13 47.448382 -122.306177 180 440ft 30kts
24-Aug-19 14:14 47.442465 -122.306137 179 440ft 16kts
24-Aug-19 14:15 47.439870 -122.302743 68 440ft 14kts
24-Aug-19 14:16 47.442043 -122.302230 36 440ft 0kts
24-Aug-19 14:17 47.442121 -122.302146 35 440ft 0kts
24-Aug-19 14:18 47.442121 -122.302146 35 440ft 0kts
24-Aug-19 14:19 47.442121 -122.302146 35 440ft 0kts
24-Aug-19 14:20 47.442121 -122.302146 35 440ft 0kts
24-Aug-19 14:21 47.442121 -122.302146 35 440ft 0kts
24-Aug-19 14:22 47.442121 -122.302146 35 440ft 0kts
24-Aug-19 14:23 47.442121 -122.302146 35 440ft 0kts
24-Aug-19 14:24 47.442121 -122.302146 35 440ft 0kts
24-Aug-19 14:25 47.442121 -122.302146 35 440ft 0kts
24-Aug-19 14:26 47.442121 -122.302146 35 440ft 0kts

Navigation Log

Ident Type
Flight plan parsing failed, navigation log unavailable